Tazewell, Virginia
Current Conditions -  °F | °C
As of 2:35 PM on Tuesday 21 Oct 2014 (Local Time) from KJFZ Reporting Station
Overcast Overcast  
Wind Chill: 55°   Ceiling: 3300
Heat Index: 55°   Visibility: 10mi
Dew Point: 42°   Wind: 9mph
Humidity: 60%   Direction: 290°WNW
Pressure: 29.96"   Gusts: 22mph
Location:  37.11°N, 81.52°W
Report Text: KJFZ 211835Z AUTO 29008G19KT 260V320 10SM BKN033 OVC046 13/05 A2996 RMK AO2 T01300053
Loading
Personal Weather Stations






























Interactive Weather Map
Tropical Storm Tracking
New forecast layout! Learn more

10-Day Weather Forecast

Advertisements
Track Severe Weather on mobile